createdAt,value
2023-04-29T00:00:50.809Z,32.70
2023-04-29T00:01:50.843Z,32.73
2023-04-29T00:02:50.893Z,32.73
2023-04-29T00:03:50.939Z,32.72
2023-04-29T00:04:51.119Z,32.72
2023-04-29T00:05:50.977Z,32.74
2023-04-29T00:06:50.924Z,32.73
2023-04-29T00:07:50.969Z,32.73
2023-04-29T00:08:51.002Z,32.75
2023-04-29T00:09:51.233Z,32.70
2023-04-29T00:10:51.104Z,32.71
2023-04-29T00:11:51.127Z,32.71
2023-04-29T00:12:51.192Z,32.73
2023-04-29T00:13:51.213Z,32.69
2023-04-29T00:14:51.273Z,32.69
2023-04-29T00:15:51.304Z,32.71
2023-04-29T00:16:51.356Z,32.70
2023-04-29T00:17:51.448Z,32.72
2023-04-29T00:18:51.470Z,32.73
2023-04-29T00:19:51.745Z,32.71
2023-04-29T00:20:51.557Z,32.69
2023-04-29T00:21:51.536Z,32.70
2023-04-29T00:22:51.632Z,32.72
2023-04-29T00:23:51.603Z,32.71
2023-04-29T00:24:51.702Z,32.71
2023-04-29T00:25:51.663Z,32.71
2023-04-29T00:26:51.823Z,32.72
2023-04-29T00:27:51.752Z,32.74
2023-04-29T00:28:51.833Z,32.72
2023-04-29T00:29:52.080Z,32.71
2023-04-29T00:30:51.882Z,32.70
2023-04-29T00:31:51.931Z,32.70
2023-04-29T00:32:51.961Z,32.71
2023-04-29T00:33:52.106Z,32.68
2023-04-29T00:34:52.028Z,32.71
2023-04-29T00:35:52.117Z,32.70
2023-04-29T00:36:52.215Z,32.70
2023-04-29T00:37:52.112Z,32.68
2023-04-29T00:38:52.134Z,32.71
2023-04-29T00:39:52.420Z,32.69
2023-04-29T00:40:52.344Z,32.72
2023-04-29T00:41:52.288Z,32.69
2023-04-29T00:42:52.295Z,32.69
2023-04-29T00:43:52.345Z,32.69
2023-04-29T00:44:52.394Z,32.69
2023-04-29T00:45:52.495Z,32.70
2023-04-29T00:46:52.434Z,32.69
2023-04-29T00:47:52.563Z,32.70
2023-04-29T00:48:52.568Z,32.72
2023-04-29T00:49:52.827Z,32.70
2023-04-29T00:50:52.669Z,32.70
2023-04-29T00:51:52.707Z,32.69
2023-04-29T00:52:52.688Z,32.68
2023-04-29T00:53:52.705Z,32.67
2023-04-29T00:54:52.849Z,32.68
2023-04-29T00:55:52.793Z,32.68
2023-04-29T00:56:52.927Z,32.68
2023-04-29T00:57:52.856Z,32.69
2023-04-29T00:58:52.952Z,32.69
2023-04-29T00:59:53.153Z,32.69
2023-04-29T01:00:54.271Z,32.68
2023-04-29T01:01:53.173Z,32.69
2023-04-29T01:02:53.025Z,32.69
2023-04-29T01:03:53.166Z,32.68
2023-04-29T01:04:53.017Z,32.69
2023-04-29T01:05:53.038Z,32.68
2023-04-29T01:06:52.959Z,32.66
2023-04-29T01:07:52.975Z,32.66
2023-04-29T01:08:52.910Z,32.68
2023-04-29T01:09:53.106Z,32.68
2023-04-29T01:10:52.929Z,32.66
2023-04-29T01:11:53.523Z,32.66
2023-04-29T01:12:52.937Z,32.66
2023-04-29T01:13:52.908Z,32.66
2023-04-29T01:14:52.957Z,32.67
2023-04-29T01:15:52.943Z,32.68
2023-04-29T01:16:52.884Z,32.66
2023-04-29T01:17:52.956Z,32.68
2023-04-29T01:18:52.948Z,32.66
2023-04-29T01:19:53.128Z,32.65
2023-04-29T01:20:52.844Z,32.66
2023-04-29T01:21:52.920Z,32.66
2023-04-29T01:22:52.817Z,32.68
2023-04-29T01:23:52.824Z,32.69
2023-04-29T01:24:52.811Z,32.68
2023-04-29T01:25:52.837Z,32.67
2023-04-29T01:26:52.819Z,32.67
2023-04-29T01:27:52.801Z,32.67
2023-04-29T01:28:52.793Z,32.65
2023-04-29T01:29:53.062Z,32.66
2023-04-29T01:30:52.793Z,32.67
2023-04-29T01:31:52.942Z,32.66
2023-04-29T01:32:52.793Z,32.65
2023-04-29T01:33:52.753Z,32.66
2023-04-29T01:34:52.783Z,32.65
2023-04-29T01:35:52.791Z,32.65
2023-04-29T01:36:52.725Z,32.66
2023-04-29T01:37:52.724Z,32.66
2023-04-29T01:38:52.696Z,32.66
2023-04-29T01:39:53.010Z,32.66
2023-04-29T01:40:52.705Z,32.65
2023-04-29T01:41:52.859Z,32.65
2023-04-29T01:42:52.687Z,32.64
2023-04-29T01:43:52.706Z,32.67
2023-04-29T01:44:52.698Z,32.63
2023-04-29T01:45:52.684Z,32.66
2023-04-29T01:46:52.763Z,32.65
2023-04-29T01:47:52.777Z,32.65
2023-04-29T01:48:52.800Z,32.65
2023-04-29T01:49:52.982Z,32.66
2023-04-29T01:50:52.892Z,32.66
2023-04-29T01:51:52.988Z,32.67
2023-04-29T01:52:52.928Z,32.66
2023-04-29T01:53:53.063Z,32.65
2023-04-29T01:54:53.053Z,32.67
2023-04-29T01:55:53.071Z,32.62
2023-04-29T01:56:53.130Z,32.64
2023-04-29T01:57:53.167Z,32.64
2023-04-29T01:58:53.192Z,32.64
2023-04-29T01:59:53.341Z,32.65
2023-04-29T02:00:53.328Z,32.64
2023-04-29T02:01:53.342Z,32.64
2023-04-29T02:02:53.376Z,32.64
2023-04-29T02:03:53.694Z,32.65
2023-04-29T02:04:53.471Z,32.65
2023-04-29T02:05:53.484Z,32.65
2023-04-29T02:06:53.586Z,32.65
2023-04-29T02:07:53.556Z,32.65
2023-04-29T02:08:53.606Z,32.66
2023-04-29T02:09:53.924Z,32.64
2023-04-29T02:10:53.777Z,32.64
2023-04-29T02:11:53.754Z,32.63
2023-04-29T02:12:53.774Z,32.65
2023-04-29T02:13:53.865Z,32.63
2023-04-29T02:14:53.876Z,32.63
2023-04-29T02:15:54.114Z,32.63
2023-04-29T02:16:53.962Z,32.63
2023-04-29T02:17:54.075Z,32.64
2023-04-29T02:18:54.066Z,32.65
2023-04-29T02:19:54.262Z,32.64
2023-04-29T02:20:54.271Z,32.65
2023-04-29T02:21:54.188Z,32.65
2023-04-29T02:22:54.255Z,32.64
2023-04-29T02:23:54.384Z,32.61
2023-04-29T02:24:54.329Z,32.62
2023-04-29T02:25:54.384Z,32.63
2023-04-29T02:26:54.439Z,32.63
2023-04-29T02:27:54.589Z,32.66
2023-04-29T02:28:54.561Z,32.64
2023-04-29T02:29:54.674Z,32.64
2023-04-29T02:30:54.684Z,32.65
2023-04-29T02:31:54.783Z,32.63
2023-04-29T02:32:54.771Z,32.65
2023-04-29T02:33:54.777Z,32.64
2023-04-29T02:34:54.819Z,32.62
2023-04-29T02:35:54.858Z,32.64
2023-04-29T02:36:54.893Z,32.64
2023-04-29T02:37:55.010Z,32.62
2023-04-29T02:38:55.093Z,32.60
2023-04-29T02:39:55.232Z,32.63
2023-04-29T02:40:55.059Z,32.64
2023-04-29T02:41:55.119Z,32.65
2023-04-29T02:42:55.199Z,32.65
2023-04-29T02:43:55.182Z,32.63
2023-04-29T02:44:55.280Z,32.61
2023-04-29T02:45:55.287Z,32.65
2023-04-29T02:46:55.396Z,32.63
2023-04-29T02:47:56.438Z,32.64
2023-04-29T02:48:55.438Z,32.63
2023-04-29T02:49:55.466Z,32.65
2023-04-29T02:50:55.491Z,32.61
2023-04-29T02:51:55.607Z,32.60
2023-04-29T02:52:55.581Z,32.64
2023-04-29T02:53:55.796Z,32.63
2023-04-29T02:54:55.678Z,32.63
2023-04-29T02:55:55.902Z,32.64
2023-04-29T02:56:55.811Z,32.65
2023-04-29T02:57:55.861Z,32.63
2023-04-29T02:58:55.904Z,32.62
2023-04-29T02:59:55.931Z,32.63
2023-04-29T03:00:56.029Z,32.61
2023-04-29T03:01:56.073Z,32.63
2023-04-29T03:02:56.146Z,32.62
2023-04-29T03:03:56.399Z,32.61
2023-04-29T03:04:56.157Z,32.62
2023-04-29T03:05:56.177Z,32.63
2023-04-29T03:06:56.249Z,32.61
2023-04-29T03:07:56.273Z,32.62
2023-04-29T03:08:56.352Z,32.62
2023-04-29T03:09:56.422Z,32.62
2023-04-29T03:10:56.426Z,32.61
2023-04-29T03:11:56.485Z,32.60
2023-04-29T03:12:56.546Z,32.61
2023-04-29T03:13:56.643Z,32.62
2023-04-29T03:14:56.636Z,32.62
2023-04-29T03:15:56.829Z,32.63
2023-04-29T03:16:56.779Z,32.61
2023-04-29T03:17:56.800Z,32.63
2023-04-29T03:18:56.805Z,32.59
2023-04-29T03:19:56.968Z,32.64
2023-04-29T03:20:56.950Z,32.62
2023-04-29T03:21:56.970Z,32.61
2023-04-29T03:22:57.074Z,32.60
2023-04-29T03:23:57.135Z,32.63
2023-04-29T03:24:57.160Z,32.59
2023-04-29T03:25:57.284Z,32.61
2023-04-29T03:26:57.247Z,32.64
2023-04-29T03:27:57.607Z,32.62
2023-04-29T03:28:57.328Z,32.63
2023-04-29T03:29:57.409Z,32.60
2023-04-29T03:30:57.509Z,32.63
2023-04-29T03:31:57.595Z,32.61
2023-04-29T03:32:57.608Z,32.62
2023-04-29T03:33:57.921Z,32.62
2023-04-29T03:34:58.103Z,32.62
2023-04-29T03:35:57.713Z,32.62
2023-04-29T03:36:57.721Z,32.60
2023-04-29T03:37:57.803Z,32.62
2023-04-29T03:38:57.820Z,32.61
2023-04-29T03:39:57.891Z,32.62
2023-04-29T03:40:57.935Z,32.61
2023-04-29T03:41:57.976Z,32.61
2023-04-29T03:42:58.003Z,32.62
2023-04-29T03:43:58.062Z,32.62
2023-04-29T03:44:58.147Z,32.62
2023-04-29T03:45:58.194Z,32.59
2023-04-29T03:46:58.232Z,32.62
2023-04-29T03:47:58.327Z,32.61
2023-04-29T03:48:58.347Z,32.59
2023-04-29T03:49:58.393Z,32.60
2023-04-29T03:50:58.511Z,32.60
2023-04-29T03:51:58.490Z,32.61
2023-04-29T03:52:58.558Z,32.60
2023-04-29T03:53:58.602Z,32.63
2023-04-29T03:54:58.672Z,32.61
2023-04-29T03:55:58.700Z,32.61
2023-04-29T03:56:58.744Z,32.62
2023-04-29T03:57:58.807Z,32.61
2023-04-29T03:58:58.836Z,32.62
2023-04-29T03:59:59.010Z,32.62
2023-04-29T04:00:58.973Z,32.62
2023-04-29T04:01:59.047Z,32.62
2023-04-29T04:02:59.343Z,32.60
2023-04-29T04:03:59.315Z,32.60
2023-04-29T04:04:59.277Z,32.62
2023-04-29T04:05:59.238Z,32.61
2023-04-29T04:06:59.309Z,32.61
2023-04-29T04:07:59.385Z,32.63
2023-04-29T04:08:59.368Z,32.62
2023-04-29T04:09:59.437Z,32.60
2023-04-29T04:10:59.514Z,32.60
2023-04-29T04:11:59.529Z,32.60
2023-04-29T04:12:59.605Z,32.62
2023-04-29T04:13:59.660Z,32.59
2023-04-29T04:14:59.691Z,32.59
2023-04-29T04:15:59.840Z,32.59
2023-04-29T04:16:59.824Z,32.61
2023-04-29T04:17:59.858Z,32.61
2023-04-29T04:18:59.930Z,32.60
2023-04-29T04:20:01.091Z,32.60
2023-04-29T04:21:00.033Z,32.59
2023-04-29T04:22:00.095Z,32.61
2023-04-29T04:23:00.139Z,32.63
2023-04-29T04:24:00.225Z,32.61
2023-04-29T04:25:00.240Z,32.62
2023-04-29T04:26:00.396Z,32.61
2023-04-29T04:27:00.351Z,32.63
2023-04-29T04:28:00.426Z,32.60
2023-04-29T04:29:00.515Z,32.61
2023-04-29T04:30:00.532Z,32.61
2023-04-29T04:31:00.630Z,32.60
2023-04-29T04:32:00.681Z,32.58
2023-04-29T04:33:00.698Z,32.59
2023-04-29T04:34:00.759Z,32.61
2023-04-29T04:35:00.845Z,32.61
2023-04-29T04:36:00.877Z,32.61
2023-04-29T04:37:00.948Z,32.58
2023-04-29T04:38:00.981Z,32.60
2023-04-29T04:39:01.043Z,32.58
2023-04-29T04:40:01.060Z,32.59
2023-04-29T04:41:01.152Z,32.58
2023-04-29T04:42:01.207Z,32.61
2023-04-29T04:43:01.238Z,32.60
2023-04-29T04:44:01.429Z,32.57
2023-04-29T04:45:01.376Z,32.60
2023-04-29T04:46:01.454Z,32.59
2023-04-29T04:47:01.457Z,32.59
2023-04-29T04:48:01.625Z,32.59
2023-04-29T04:49:01.560Z,32.59
2023-04-29T04:50:01.595Z,32.58
2023-04-29T04:51:01.701Z,32.58
2023-04-29T04:52:02.630Z,32.59
2023-04-29T04:53:01.790Z,32.62
2023-04-29T04:54:02.660Z,32.58
2023-04-29T04:55:01.905Z,32.59
2023-04-29T04:56:01.988Z,32.59
2023-04-29T04:57:02.045Z,32.59
2023-04-29T04:58:02.093Z,32.59
2023-04-29T04:59:02.154Z,32.59
2023-04-29T05:00:02.161Z,32.60
2023-04-29T05:01:02.296Z,32.58
2023-04-29T05:02:02.398Z,32.58
2023-04-29T05:03:02.499Z,32.58
2023-04-29T05:04:02.505Z,32.60
2023-04-29T05:05:02.560Z,32.56
2023-04-29T05:06:02.541Z,32.58
2023-04-29T05:07:03.662Z,32.58
2023-04-29T05:08:02.720Z,32.58
2023-04-29T05:09:02.678Z,32.60
2023-04-29T05:10:02.786Z,32.60
2023-04-29T05:11:02.768Z,32.58
2023-04-29T05:12:04.655Z,32.59
2023-04-29T05:13:03.027Z,32.58
2023-04-29T05:14:02.924Z,32.57
2023-04-29T05:15:02.996Z,32.59
2023-04-29T05:16:04.087Z,32.56
2023-04-29T05:17:03.082Z,32.57
2023-04-29T05:18:03.199Z,32.57
2023-04-29T05:19:03.035Z,32.59
2023-04-29T05:20:03.033Z,32.58
2023-04-29T05:21:03.097Z,32.58
2023-04-29T05:22:03.021Z,32.58
2023-04-29T05:23:03.012Z,32.56
2023-04-29T05:24:03.015Z,32.57
2023-04-29T05:25:03.009Z,32.55
2023-04-29T05:26:03.002Z,32.58
2023-04-29T05:27:02.958Z,32.56
2023-04-29T05:28:02.996Z,32.59
2023-04-29T05:29:02.986Z,32.57
2023-04-29T05:30:02.934Z,32.56
2023-04-29T05:31:02.991Z,32.57
2023-04-29T05:32:02.932Z,32.57
2023-04-29T05:33:03.032Z,32.56
2023-04-29T05:34:02.969Z,32.58
2023-04-29T05:35:03.722Z,32.55
2023-04-29T05:36:02.982Z,32.57
2023-04-29T05:37:03.046Z,32.56
2023-04-29T05:38:03.108Z,32.56
2023-04-29T05:39:03.165Z,32.56
2023-04-29T05:40:03.228Z,32.57
2023-04-29T05:41:03.268Z,32.56
2023-04-29T05:42:03.461Z,32.57
2023-04-29T05:43:03.498Z,32.56
2023-04-29T05:44:03.444Z,32.53
2023-04-29T05:45:03.501Z,32.59
2023-04-29T05:46:03.651Z,32.56
2023-04-29T05:47:03.655Z,32.55
2023-04-29T05:48:03.780Z,32.58
2023-04-29T05:49:03.734Z,32.56
2023-04-29T05:50:03.802Z,32.55
2023-04-29T05:51:03.863Z,32.56
2023-04-29T05:52:03.967Z,32.56
2023-04-29T05:53:04.953Z,32.53
2023-04-29T05:54:03.997Z,32.55
2023-04-29T05:55:04.094Z,32.54
2023-04-29T05:56:04.154Z,32.55
2023-04-29T05:57:04.186Z,32.55
2023-04-29T05:58:04.221Z,32.55
2023-04-29T05:59:04.249Z,32.55
2023-04-29T06:00:04.328Z,32.55
2023-04-29T06:01:04.488Z,32.54
2023-04-29T06:02:04.400Z,32.59
2023-04-29T06:03:04.545Z,32.53
2023-04-29T06:04:04.768Z,32.55
2023-04-29T06:05:04.746Z,32.54
2023-04-29T06:06:04.801Z,32.53
2023-04-29T06:07:04.714Z,32.56
2023-04-29T06:08:04.712Z,32.53
2023-04-29T06:09:08.567Z,32.53
2023-04-29T06:10:05.760Z,32.56
2023-04-29T06:11:04.822Z,32.53
2023-04-29T06:12:04.767Z,32.54
2023-04-29T06:13:04.739Z,32.56
2023-04-29T06:14:04.767Z,32.55
2023-04-29T06:15:04.748Z,32.53
2023-04-29T06:16:04.769Z,32.55
2023-04-29T06:17:04.781Z,32.54
2023-04-29T06:18:04.928Z,32.59
2023-04-29T06:19:04.739Z,32.56
2023-04-29T06:20:04.844Z,32.57
2023-04-29T06:21:04.890Z,32.56
2023-04-29T06:22:04.963Z,32.59
2023-04-29T06:23:04.972Z,32.56
2023-04-29T06:24:05.037Z,32.54
2023-04-29T06:25:05.049Z,32.54
2023-04-29T06:26:05.110Z,32.57
2023-04-29T06:27:05.172Z,32.53
2023-04-29T06:28:05.252Z,32.56
2023-04-29T06:29:06.297Z,32.53
2023-04-29T06:30:05.311Z,32.55
2023-04-29T06:31:05.427Z,32.57
2023-04-29T06:32:06.304Z,32.56
2023-04-29T06:33:05.514Z,32.54
2023-04-29T06:34:05.531Z,32.53
2023-04-29T06:35:05.530Z,32.53
2023-04-29T06:36:05.651Z,32.52
2023-04-29T06:37:05.608Z,32.53
2023-04-29T06:38:05.652Z,32.50
2023-04-29T06:39:05.742Z,32.51
2023-04-29T06:40:05.728Z,32.50
2023-04-29T06:41:05.748Z,32.50
2023-04-29T06:42:05.846Z,32.48
2023-04-29T06:43:05.834Z,32.48
2023-04-29T06:44:05.906Z,32.47
2023-04-29T06:45:05.943Z,32.43
2023-04-29T06:46:05.958Z,32.46
2023-04-29T06:47:06.061Z,32.42
2023-04-29T06:48:06.100Z,32.43
2023-04-29T06:49:06.110Z,32.40
2023-04-29T06:50:06.137Z,32.36
2023-04-29T06:51:06.170Z,32.38
2023-04-29T06:52:06.147Z,32.36
2023-04-29T06:53:06.261Z,32.36
2023-04-29T06:54:06.291Z,32.37
2023-04-29T06:55:06.250Z,32.32
2023-04-29T06:56:06.313Z,32.33
2023-04-29T06:57:06.334Z,32.32
2023-04-29T06:58:06.366Z,32.30
2023-04-29T06:59:06.405Z,32.32
2023-04-29T07:00:06.451Z,32.30
2023-04-29T07:01:06.510Z,32.30
2023-04-29T07:02:06.495Z,32.28
2023-04-29T07:03:06.588Z,32.28
2023-04-29T07:04:06.536Z,32.26
2023-04-29T07:05:06.559Z,32.27
2023-04-29T07:06:06.584Z,32.25
2023-04-29T07:07:06.613Z,32.24
2023-04-29T07:08:06.650Z,32.23
2023-04-29T07:09:06.642Z,32.23
2023-04-29T07:10:06.670Z,32.23
2023-04-29T07:11:06.705Z,32.20
2023-04-29T07:12:06.806Z,32.22
2023-04-29T07:13:06.760Z,32.20
2023-04-29T07:14:06.765Z,32.20
2023-04-29T07:15:06.811Z,32.23
2023-04-29T07:16:06.818Z,32.20
2023-04-29T07:17:06.867Z,32.19
2023-04-29T07:18:06.955Z,32.20
2023-04-29T07:19:06.912Z,32.20
2023-04-29T07:20:06.877Z,32.20
2023-04-29T07:21:06.965Z,32.21
2023-04-29T07:22:06.924Z,32.18
2023-04-29T07:23:06.974Z,32.19
2023-04-29T07:24:06.964Z,32.20
2023-04-29T07:25:06.989Z,32.18
2023-04-29T07:26:07.053Z,32.18
2023-04-29T07:27:07.029Z,32.17
2023-04-29T07:28:07.054Z,32.18
2023-04-29T07:29:07.064Z,32.18
2023-04-29T07:30:07.121Z,32.16
2023-04-29T07:31:07.139Z,32.16
2023-04-29T07:32:07.176Z,32.17
2023-04-29T07:33:07.176Z,32.17
2023-04-29T07:34:07.169Z,32.17
2023-04-29T07:35:07.181Z,32.17
2023-04-29T07:36:07.238Z,32.16
2023-04-29T07:37:07.219Z,32.15
2023-04-29T07:38:07.257Z,32.15
2023-04-29T07:39:07.251Z,32.15
2023-04-29T07:40:07.245Z,32.16
2023-04-29T07:41:07.293Z,32.13
2023-04-29T07:42:07.249Z,32.12
2023-04-29T07:43:07.361Z,32.14
2023-04-29T07:44:07.276Z,32.13
2023-04-29T07:45:07.287Z,32.16
2023-04-29T07:46:07.360Z,32.14
2023-04-29T07:47:07.300Z,32.18
2023-04-29T07:48:07.325Z,32.15
2023-04-29T07:49:07.316Z,32.16
2023-04-29T07:50:07.371Z,32.16
2023-04-29T07:51:07.352Z,32.15
2023-04-29T07:52:07.366Z,32.15
2023-04-29T07:53:07.397Z,32.14
2023-04-29T07:54:07.378Z,32.14
2023-04-29T07:55:07.419Z,32.12
2023-04-29T07:56:07.427Z,32.15
2023-04-29T07:57:07.377Z,32.13
2023-04-29T07:58:07.437Z,32.13
2023-04-29T07:59:07.383Z,32.12
2023-04-29T08:00:07.395Z,32.14
2023-04-29T08:01:07.404Z,32.10
2023-04-29T08:02:07.404Z,32.12
2023-04-29T08:03:07.540Z,32.12
2023-04-29T08:04:07.798Z,32.12
2023-04-29T08:05:07.723Z,32.15
2023-04-29T08:06:07.576Z,32.14
2023-04-29T08:07:07.454Z,32.13
2023-04-29T08:08:07.417Z,32.14
2023-04-29T08:09:07.433Z,32.13
2023-04-29T08:10:07.442Z,32.14
2023-04-29T08:11:07.448Z,32.13
2023-04-29T08:12:07.446Z,32.12
2023-04-29T08:13:07.429Z,32.13
2023-04-29T08:14:07.457Z,32.13
2023-04-29T08:15:09.565Z,32.14
2023-04-29T08:16:07.564Z,32.14
2023-04-29T08:17:07.446Z,32.16
2023-04-29T08:18:07.511Z,32.15
2023-04-29T08:19:07.479Z,32.15
2023-04-29T08:20:07.475Z,32.14
2023-04-29T08:21:07.457Z,32.15
2023-04-29T08:22:07.520Z,32.12
2023-04-29T08:23:07.454Z,32.11
2023-04-29T08:24:07.516Z,32.14
2023-04-29T08:25:07.455Z,32.12
2023-04-29T08:26:07.454Z,32.12
2023-04-29T08:27:07.449Z,32.12
2023-04-29T08:28:07.475Z,32.13
2023-04-29T08:29:07.434Z,32.11
2023-04-29T08:30:07.431Z,32.13
2023-04-29T08:31:07.520Z,32.12
2023-04-29T08:32:07.565Z,32.13
2023-04-29T08:33:07.525Z,32.14
2023-04-29T08:34:07.439Z,32.15
2023-04-29T08:35:07.421Z,32.11
2023-04-29T08:36:07.463Z,32.13
2023-04-29T08:37:07.456Z,32.12
2023-04-29T08:38:07.479Z,32.12
2023-04-29T08:39:07.417Z,32.11
2023-04-29T08:40:07.451Z,32.11
2023-04-29T08:41:07.463Z,32.10
2023-04-29T08:42:07.465Z,32.09
2023-04-29T08:43:07.476Z,32.10
2023-04-29T08:44:07.607Z,32.08
2023-04-29T08:45:07.503Z,32.09
2023-04-29T08:46:07.486Z,32.07
2023-04-29T08:47:07.469Z,32.07
2023-04-29T08:48:07.692Z,32.05
2023-04-29T08:49:07.533Z,32.06
2023-04-29T08:50:07.553Z,32.05
2023-04-29T08:51:07.571Z,32.05
2023-04-29T08:52:07.884Z,32.04
2023-04-29T08:53:07.620Z,32.03
2023-04-29T08:54:07.657Z,32.04
2023-04-29T08:55:07.686Z,32.02
2023-04-29T08:56:07.738Z,32.04
2023-04-29T08:57:07.788Z,32.03
2023-04-29T08:58:07.748Z,32.04
2023-04-29T08:59:07.780Z,32.04
2023-04-29T09:00:07.807Z,32.01
2023-04-29T09:01:07.891Z,32.03
2023-04-29T09:02:07.952Z,32.06
2023-04-29T09:03:08.045Z,32.05
2023-04-29T09:04:08.057Z,32.01
2023-04-29T09:05:08.087Z,32.05
2023-04-29T09:06:08.144Z,32.03
2023-04-29T09:07:08.246Z,32.05
2023-04-29T09:08:08.265Z,32.06
2023-04-29T09:09:08.314Z,32.09
2023-04-29T09:10:08.352Z,32.06
2023-04-29T09:11:08.456Z,32.07
2023-04-29T09:12:08.441Z,32.08
2023-04-29T09:13:09.218Z,32.08
2023-04-29T09:14:08.565Z,32.09
2023-04-29T09:15:08.649Z,32.08
2023-04-29T09:16:08.662Z,32.07
2023-04-29T09:17:08.685Z,32.08
2023-04-29T09:18:08.802Z,32.07
2023-04-29T09:19:08.897Z,32.07
2023-04-29T09:20:08.898Z,32.08
2023-04-29T09:21:08.918Z,32.09
2023-04-29T09:22:08.973Z,32.08
2023-04-29T09:23:09.098Z,32.10
2023-04-29T09:24:09.171Z,32.10
2023-04-29T09:25:09.164Z,32.08
2023-04-29T09:26:09.271Z,32.10
2023-04-29T09:27:09.294Z,32.11
2023-04-29T09:28:09.316Z,32.12
2023-04-29T09:29:09.457Z,32.12
2023-04-29T09:30:09.478Z,32.11
2023-04-29T09:31:09.609Z,32.09
2023-04-29T09:32:09.567Z,32.10
2023-04-29T09:33:09.748Z,32.12
2023-04-29T09:34:09.679Z,32.11
2023-04-29T09:35:09.718Z,32.11
2023-04-29T09:36:09.809Z,32.09
2023-04-29T09:37:09.835Z,32.09
2023-04-29T09:38:10.089Z,32.09
2023-04-29T09:39:09.950Z,32.10
2023-04-29T09:40:10.034Z,32.11
2023-04-29T09:41:10.072Z,32.11
2023-04-29T09:42:10.131Z,32.13
2023-04-29T09:43:10.231Z,32.11
2023-04-29T09:44:10.252Z,32.13
2023-04-29T09:45:10.300Z,32.13
2023-04-29T09:46:10.488Z,32.12
2023-04-29T09:47:10.470Z,32.12
2023-04-29T09:48:10.482Z,32.12
2023-04-29T09:49:10.532Z,32.11
2023-04-29T09:50:10.601Z,32.12
2023-04-29T09:51:10.650Z,32.12
2023-04-29T09:52:10.811Z,32.09
2023-04-29T09:53:10.833Z,32.11
2023-04-29T09:54:10.792Z,32.10
2023-04-29T09:55:10.877Z,32.10
2023-04-29T09:56:10.914Z,32.10
2023-04-29T09:57:11.059Z,32.10
2023-04-29T09:58:11.039Z,32.10
2023-04-29T09:59:11.049Z,32.11
2023-04-29T10:00:11.122Z,32.11
2023-04-29T10:01:11.223Z,32.09
2023-04-29T10:02:11.242Z,32.09
2023-04-29T10:03:11.327Z,32.11
2023-04-29T10:04:11.346Z,32.12
2023-04-29T10:05:11.421Z,32.11
2023-04-29T10:06:11.445Z,32.10
2023-04-29T10:07:12.264Z,32.11
2023-04-29T10:08:11.554Z,32.11
2023-04-29T10:09:11.582Z,32.11
2023-04-29T10:10:11.605Z,32.11
2023-04-29T10:11:11.679Z,32.10
2023-04-29T10:12:11.697Z,32.12
2023-04-29T10:13:11.789Z,32.12
2023-04-29T10:14:11.853Z,32.13
2023-04-29T10:15:11.845Z,32.10
2023-04-29T10:16:11.959Z,32.11
2023-04-29T10:17:11.973Z,32.12
2023-04-29T10:18:12.052Z,32.11
2023-04-29T10:19:12.023Z,32.13
2023-04-29T10:20:12.071Z,32.10
2023-04-29T10:21:12.163Z,32.10
2023-04-29T10:22:12.151Z,32.11
2023-04-29T10:23:12.237Z,32.10
2023-04-29T10:24:12.233Z,32.12
2023-04-29T10:25:12.258Z,32.11
2023-04-29T10:26:12.356Z,32.11
2023-04-29T10:27:12.403Z,32.11
2023-04-29T10:28:12.453Z,32.09
2023-04-29T10:29:12.463Z,32.08
2023-04-29T10:30:12.597Z,32.10
2023-04-29T10:31:12.566Z,32.10
2023-04-29T10:32:12.556Z,32.07
2023-04-29T10:33:12.603Z,32.11
2023-04-29T10:34:12.605Z,32.07
2023-04-29T10:35:12.664Z,32.07
2023-04-29T10:36:12.692Z,32.06
2023-04-29T10:37:12.726Z,32.08
2023-04-29T10:38:12.786Z,32.10
2023-04-29T10:39:12.812Z,32.11
2023-04-29T10:40:12.845Z,32.12
2023-04-29T10:41:12.894Z,32.13
2023-04-29T10:42:12.907Z,32.12
2023-04-29T10:43:12.943Z,32.11
2023-04-29T10:44:12.993Z,32.12
2023-04-29T10:45:13.008Z,32.14
2023-04-29T10:46:13.153Z,32.15
2023-04-29T10:47:13.062Z,32.11
2023-04-29T10:48:13.173Z,32.11
2023-04-29T10:49:13.140Z,32.13
2023-04-29T10:50:13.198Z,32.14
2023-04-29T10:51:13.239Z,32.15
2023-04-29T10:52:13.331Z,32.17
2023-04-29T10:53:13.333Z,32.15
2023-04-29T10:54:13.320Z,32.16
2023-04-29T10:55:13.390Z,32.15
2023-04-29T10:56:13.413Z,32.14
2023-04-29T10:57:13.429Z,32.15
2023-04-29T10:58:13.500Z,32.14
2023-04-29T10:59:13.538Z,32.17
2023-04-29T11:00:14.700Z,32.15
2023-04-29T11:01:13.658Z,32.16
2023-04-29T11:02:13.696Z,32.14
2023-04-29T11:03:13.794Z,32.17
2023-04-29T11:04:13.734Z,32.14
2023-04-29T11:05:13.777Z,32.16
2023-04-29T11:06:13.788Z,32.18
2023-04-29T11:07:13.829Z,32.17
2023-04-29T11:08:13.863Z,32.17
2023-04-29T11:09:13.897Z,32.19
2023-04-29T11:10:14.000Z,32.18
2023-04-29T11:11:13.973Z,32.19
2023-04-29T11:12:14.009Z,32.19
2023-04-29T11:13:14.068Z,32.19
2023-04-29T11:14:14.111Z,32.18
2023-04-29T11:15:14.124Z,32.20
2023-04-29T11:16:14.272Z,32.19
2023-04-29T11:17:14.182Z,32.20
2023-04-29T11:18:14.350Z,32.21
2023-04-29T11:19:14.281Z,32.22
2023-04-29T11:20:14.434Z,32.22
2023-04-29T11:21:14.377Z,32.22
2023-04-29T11:22:14.471Z,32.21
2023-04-29T11:23:14.484Z,32.22
2023-04-29T11:24:14.538Z,32.23
2023-04-29T11:25:14.530Z,32.23
2023-04-29T11:26:14.581Z,32.25
2023-04-29T11:27:14.595Z,32.25
2023-04-29T11:28:14.680Z,32.24
2023-04-29T11:29:14.719Z,32.26
2023-04-29T11:30:14.726Z,32.28
2023-04-29T11:31:14.896Z,32.26
2023-04-29T11:32:14.878Z,32.27
2023-04-29T11:33:14.970Z,32.27
2023-04-29T11:34:14.863Z,32.28
2023-04-29T11:35:14.922Z,32.27
2023-04-29T11:36:14.952Z,32.27
2023-04-29T11:37:14.996Z,32.28
2023-04-29T11:38:15.052Z,32.27
2023-04-29T11:39:15.056Z,32.30
2023-04-29T11:40:15.122Z,32.30
2023-04-29T11:41:15.170Z,32.30
2023-04-29T11:42:15.186Z,32.30
2023-04-29T11:43:15.228Z,32.30
2023-04-29T11:44:15.306Z,32.29
2023-04-29T11:45:15.260Z,32.28
2023-04-29T11:46:15.344Z,32.30
2023-04-29T11:47:15.327Z,32.31
2023-04-29T11:48:15.396Z,32.30
2023-04-29T11:49:15.430Z,32.28
2023-04-29T11:50:15.458Z,32.29
2023-04-29T11:51:15.489Z,32.30
2023-04-29T11:52:15.498Z,32.31
2023-04-29T11:53:15.587Z,32.30
2023-04-29T11:54:15.573Z,32.30
2023-04-29T11:55:15.580Z,32.32
2023-04-29T11:56:15.661Z,32.34
2023-04-29T11:57:15.730Z,32.33
2023-04-29T11:58:15.719Z,32.33
2023-04-29T11:59:15.711Z,32.33
2023-04-29T12:00:15.777Z,32.33
2023-04-29T12:01:15.783Z,32.33
2023-04-29T12:02:15.842Z,32.34
2023-04-29T12:03:16.336Z,32.35
2023-04-29T12:04:16.223Z,32.33
2023-04-29T12:05:16.470Z,32.30
2023-04-29T12:06:15.965Z,32.31
2023-04-29T12:07:15.951Z,32.32
2023-04-29T12:08:16.005Z,32.32
2023-04-29T12:09:16.052Z,32.33
2023-04-29T12:10:16.209Z,32.32
2023-04-29T12:11:16.144Z,32.33
2023-04-29T12:12:16.150Z,32.35
2023-04-29T12:13:16.209Z,32.35
2023-04-29T12:14:16.260Z,32.32
2023-04-29T12:15:16.245Z,32.32
2023-04-29T12:16:16.304Z,32.33
2023-04-29T12:17:16.283Z,32.33
2023-04-29T12:18:16.353Z,32.35
2023-04-29T12:19:16.377Z,32.34
2023-04-29T12:20:16.408Z,32.33
2023-04-29T12:21:16.443Z,32.35
2023-04-29T12:22:16.444Z,32.34
2023-04-29T12:23:16.520Z,32.35
2023-04-29T12:24:16.547Z,32.35
2023-04-29T12:25:16.536Z,32.36
2023-04-29T12:26:16.609Z,32.35
2023-04-29T12:27:16.600Z,32.35
2023-04-29T12:28:16.700Z,32.32
2023-04-29T12:29:16.674Z,32.32
2023-04-29T12:30:16.724Z,32.35
2023-04-29T12:31:16.841Z,32.33
2023-04-29T12:32:17.310Z,32.33
2023-04-29T12:33:16.814Z,32.32
2023-04-29T12:34:16.835Z,32.35
2023-04-29T12:35:16.838Z,32.36
2023-04-29T12:36:16.929Z,32.33
2023-04-29T12:37:16.957Z,32.34
2023-04-29T12:38:16.934Z,32.33
2023-04-29T12:39:17.013Z,32.35
2023-04-29T12:40:17.003Z,32.34
2023-04-29T12:41:17.073Z,32.36
2023-04-29T12:42:17.099Z,32.36
2023-04-29T12:43:17.178Z,32.35
2023-04-29T12:44:17.181Z,32.35
2023-04-29T12:45:17.153Z,32.34
2023-04-29T12:46:18.282Z,32.33
2023-04-29T12:47:17.282Z,32.32
2023-04-29T12:48:26.684Z,32.33
2023-04-29T12:49:18.294Z,32.35
2023-04-29T12:50:17.326Z,32.35
2023-04-29T12:51:17.253Z,32.34
2023-04-29T12:52:17.260Z,32.34
2023-04-29T12:53:17.262Z,32.33